Time;durP1;ratioP1;P1;durP2;ratioP2;P2;SDS_P1;SDS_P2;PMS_P1;PMS_P2;Temp;Humidity;BMP_temperature;BMP_pressure;BME280_temperature;BME280_humidity;BME280_pressure;Samples;Min_cycle;Max_cycle;Signal;HPM_P1;HPM_P2
2022/08/29 00:00:25;;;;;;;13.23;11.38;;;;;;;;;;5000913;28;20080;-78
2022/08/29 00:02:55;;;;;;;13.18;11.45;;;;;;;;;;5015000;28;20053;-77
2022/08/29 00:05:26;;;;;;;12.15;10.65;;;;;;;;;;4996791;28;20391;-76
2022/08/29 00:07:53;;;;;;;13.13;11.27;;;;;;;;;;5014383;28;20054;-77
2022/08/29 00:10:20;;;;;;;13.60;11.82;;;;;;;;;;5027987;28;20049;-78
2022/08/29 00:12:47;;;;;;;13.48;11.13;;;;;;;;;;5015717;28;20112;-77
2022/08/29 00:15:14;;;;;;;13.98;12.50;;;;;;;;;;5031037;28;20124;-77
2022/08/29 00:17:42;;;;;;;12.35;11.18;;;;;;;;;;5031751;28;20124;-77
2022/08/29 00:20:12;;;;;;;12.75;11.55;;;;;;;;;;4995235;28;20057;-76
2022/08/29 00:22:38;;;;;;;15.55;11.45;;;;;;;;;;4995894;28;20058;-76
2022/08/29 00:25:06;;;;;;;11.68;10.48;;;;;;;;;;4996296;28;20049;-76
2022/08/29 00:27:33;;;;;;;13.48;10.75;;;;;;;;;;4995528;28;20073;-76
2022/08/29 00:30:00;;;;;;;14.80;11.32;;;;;;;;;;5015286;28;20047;-76
2022/08/29 00:32:33;;;;;;;13.70;11.13;;;;;;;;;;4996527;28;20128;-78
2022/08/29 00:35:05;;;;;;;12.93;11.48;;;;;;;;;;4990189;28;20060;-78
2022/08/29 00:37:32;;;;;;;12.05;10.30;;;;;;;;;;4984307;28;20128;-78
2022/08/29 00:39:59;;;;;;;11.50;10.40;;;;;;;;;;5001933;28;20645;-77
2022/08/29 00:42:26;;;;;;;11.52;10.43;;;;;;;;;;5011355;28;20522;-78
2022/08/29 00:44:53;;;;;;;12.50;11.30;;;;;;;;;;4995299;28;20108;-78
2022/08/29 00:47:22;;;;;;;14.38;11.35;;;;;;;;;;5027095;28;20049;-78
2022/08/29 00:49:52;;;;;;;11.52;10.30;;;;;;;;;;5003856;28;20049;-78
2022/08/29 00:52:34;;;;;;;12.35;10.95;;;;;;;;;;5014811;28;20152;-77
2022/08/29 00:55:03;;;;;;;13.45;10.82;;;;;;;;;;4997837;28;20485;-79
2022/08/29 00:57:30;;;;;;;13.48;10.65;;;;;;;;;;4997864;28;20046;-77
2022/08/29 00:59:57;;;;;;;12.82;11.25;;;;;;;;;;5011941;28;20053;-79
2022/08/29 01:02:24;;;;;;;12.38;10.55;;;;;;;;;;5012173;28;20052;-77
2022/08/29 01:04:50;;;;;;;17.75;11.50;;;;;;;;;;5020355;28;20085;-77
2022/08/29 01:07:19;;;;;;;12.75;10.93;;;;;;;;;;5018606;28;20129;-77
2022/08/29 01:09:45;;;;;;;13.25;11.52;;;;;;;;;;5021224;28;20497;-78
2022/08/29 01:12:15;;;;;;;16.42;11.00;;;;;;;;;;5031390;28;20140;-77
2022/08/29 01:14:49;;;;;;;13.90;11.02;;;;;;;;;;5016135;28;20129;-78
2022/08/29 01:17:26;;;;;;;11.95;10.57;;;;;;;;;;4996527;28;20513;-78
2022/08/29 01:20:07;;;;;;;15.15;11.30;;;;;;;;;;4998781;28;20050;-79
2022/08/29 01:23:01;;;;;;;13.05;10.90;;;;;;;;;;4999464;28;20050;-80
2022/08/29 01:25:31;;;;;;;12.63;11.32;;;;;;;;;;5030727;28;20056;-80
2022/08/29 01:28:27;;;;;;;12.25;11.05;;;;;;;;;;5008203;28;20130;-80
2022/08/29 01:31:06;;;;;;;12.43;10.52;;;;;;;;;;5019224;28;20050;-79
2022/08/29 01:33:48;;;;;;;13.70;11.35;;;;;;;;;;5020549;28;20521;-78
2022/08/29 01:36:19;;;;;;;14.77;11.13;;;;;;;;;;5023187;28;20083;-79
2022/08/29 01:38:46;;;;;;;13.25;11.40;;;;;;;;;;5006437;28;20506;-79
2022/08/29 01:41:13;;;;;;;14.52;13.02;;;;;;;;;;5002674;28;20077;-79
2022/08/29 01:43:47;;;;;;;14.40;11.30;;;;;;;;;;5028494;28;20049;-81
2022/08/29 01:46:16;;;;;;;13.55;11.65;;;;;;;;;;5033309;28;20073;-78
2022/08/29 01:48:43;;;;;;;13.45;11.52;;;;;;;;;;5016992;28;20053;-79
2022/08/29 01:51:12;;;;;;;15.38;12.27;;;;;;;;;;5026957;28;20421;-78
2022/08/29 01:53:39;;;;;;;14.35;11.63;;;;;;;;;;5010954;28;20089;-78
2022/08/29 01:56:14;;;;;;;16.33;12.32;;;;;;;;;;5011861;28;20085;-78
2022/08/29 01:58:42;;;;;;;13.70;11.68;;;;;;;;;;5010763;28;20088;-78
2022/08/29 02:01:09;;;;;;;13.23;11.45;;;;;;;;;;4994865;28;20103;-78
2022/08/29 02:03:36;;;;;;;13.52;11.85;;;;;;;;;;5028088;28;20077;-79
2022/08/29 02:06:03;;;;;;;13.85;12.23;;;;;;;;;;5007141;28;20541;-78
2022/08/29 02:08:30;;;;;;;15.82;12.13;;;;;;;;;;5027101;28;20076;-78
2022/08/29 02:10:57;;;;;;;15.20;11.48;;;;;;;;;;5003456;28;20426;-80
2022/08/29 02:13:24;;;;;;;13.52;12.10;;;;;;;;;;4994699;28;20050;-79
2022/08/29 02:15:51;;;;;;;13.20;11.80;;;;;;;;;;4995098;28;20126;-79
2022/08/29 02:18:17;;;;;;;14.00;12.38;;;;;;;;;;5011023;28;20089;-78
2022/08/29 02:20:45;;;;;;;16.02;11.30;;;;;;;;;;4997931;28;20565;-77
2022/08/29 02:23:12;;;;;;;14.45;12.02;;;;;;;;;;5023682;28;20129;-78
2022/08/29 02:25:56;;;;;;;15.65;12.05;;;;;;;;;;5000790;28;20054;-77
2022/08/29 02:28:23;;;;;;;14.45;11.82;;;;;;;;;;5014296;28;20097;-76
2022/08/29 02:30:51;;;;;;;12.60;11.30;;;;;;;;;;5014315;28;20513;-76
2022/08/29 02:33:22;;;;;;;13.73;11.30;;;;;;;;;;5014365;28;20520;-78
2022/08/29 02:35:49;;;;;;;15.85;11.82;;;;;;;;;;4997817;28;20097;-77
2022/08/29 02:38:16;;;;;;;13.02;11.73;;;;;;;;;;5013688;28;20045;-77
2022/08/29 02:40:43;;;;;;;14.52;11.73;;;;;;;;;;5014301;28;20077;-77
2022/08/29 02:43:10;;;;;;;14.15;12.65;;;;;;;;;;4998378;28;20140;-79
2022/08/29 02:45:39;;;;;;;13.23;11.93;;;;;;;;;;5015122;28;20049;-77
2022/08/29 02:48:06;;;;;;;13.05;11.75;;;;;;;;;;5013850;28;20045;-77
2022/08/29 02:50:34;;;;;;;14.68;12.50;;;;;;;;;;5019313;28;20053;-78
2022/08/29 02:53:01;;;;;;;12.20;10.90;;;;;;;;;;5013943;28;20136;-78
2022/08/29 02:55:28;;;;;;;13.73;12.30;;;;;;;;;;5026844;28;20430;-78
2022/08/29 02:57:54;;;;;;;16.00;12.60;;;;;;;;;;4997795;28;20046;-78
2022/08/29 03:00:24;;;;;;;13.23;11.85;;;;;;;;;;5015632;28;20167;-78
2022/08/29 03:02:52;;;;;;;15.50;13.10;;;;;;;;;;5014758;28;20532;-78
2022/08/29 03:05:22;;;;;;;13.60;12.13;;;;;;;;;;5020509;28;20076;-78
2022/08/29 03:07:51;;;;;;;20.80;12.38;;;;;;;;;;5036139;28;20125;-78
2022/08/29 03:10:18;;;;;;;14.10;12.32;;;;;;;;;;5034360;28;20049;-77
2022/08/29 03:12:46;;;;;;;17.63;12.27;;;;;;;;;;5034622;28;20110;-78
2022/08/29 03:15:13;;;;;;;15.27;13.50;;;;;;;;;;5012621;28;20046;-79
2022/08/29 03:17:40;;;;;;;16.17;13.88;;;;;;;;;;5007845;28;20045;-79
2022/08/29 03:20:08;;;;;;;15.32;13.00;;;;;;;;;;5015069;28;20230;-77
2022/08/29 03:22:36;;;;;;;14.95;12.05;;;;;;;;;;5015161;28;20057;-77
2022/08/29 03:25:04;;;;;;;15.90;12.55;;;;;;;;;;5027196;28;20029;-82
2022/08/29 03:27:31;;;;;;;15.05;12.73;;;;;;;;;;5042491;28;20036;-79
2022/08/29 03:29:58;;;;;;;14.73;12.70;;;;;;;;;;5058438;28;20061;-80
2022/08/29 03:32:25;;;;;;;16.95;11.95;;;;;;;;;;5057225;28;20044;-77
2022/08/29 03:34:52;;;;;;;13.18;11.77;;;;;;;;;;5052374;28;20060;-79
2022/08/29 03:37:19;;;;;;;14.35;11.75;;;;;;;;;;5032853;28;20064;-78
2022/08/29 03:39:46;;;;;;;13.27;11.77;;;;;;;;;;5017416;28;20046;-78
2022/08/29 03:42:13;;;;;;;13.40;11.30;;;;;;;;;;5033283;28;20050;-76
2022/08/29 03:44:41;;;;;;;14.23;11.68;;;;;;;;;;5033120;28;20045;-76
2022/08/29 03:47:08;;;;;;;13.38;11.95;;;;;;;;;;5020069;28;20064;-77
2022/08/29 03:49:35;;;;;;;15.25;12.48;;;;;;;;;;5036221;28;20029;-76
2022/08/29 03:52:02;;;;;;;16.40;12.43;;;;;;;;;;5051734;28;20050;-77
2022/08/29 03:54:29;;;;;;;13.00;11.70;;;;;;;;;;5011690;28;20088;-77
2022/08/29 03:56:56;;;;;;;13.07;11.75;;;;;;;;;;5041245;28;20057;-75
2022/08/29 03:59:23;;;;;;;12.75;11.43;;;;;;;;;;5013528;28;20101;-76
2022/08/29 04:01:50;;;;;;;19.45;12.45;;;;;;;;;;5022771;28;20050;-76
2022/08/29 04:07:08;;;;;;;13.40;12.00;;;;;;;;;;5015099;28;20054;-80
2022/08/29 04:09:35;;;;;;;16.10;12.05;;;;;;;;;;5014540;22;20046;-70
2022/08/29 04:12:02;;;;;;;13.98;12.25;;;;;;;;;;5077370;28;20076;-69
2022/08/29 04:14:29;;;;;;;12.73;11.50;;;;;;;;;;5077676;28;20065;-69
2022/08/29 04:16:56;;;;;;;17.05;12.05;;;;;;;;;;5077890;28;20045;-67
2022/08/29 04:19:23;;;;;;;14.43;12.75;;;;;;;;;;5077509;28;20037;-67
2022/08/29 04:21:50;;;;;;;14.43;11.70;;;;;;;;;;5077597;28;20089;-68
2022/08/29 04:24:18;;;;;;;16.98;12.43;;;;;;;;;;5059671;28;20056;-68
2022/08/29 04:26:45;;;;;;;19.40;14.27;;;;;;;;;;5057457;28;20057;-68
2022/08/29 04:29:12;;;;;;;14.70;13.23;;;;;;;;;;5057505;28;20093;-74
2022/08/29 04:31:40;;;;;;;15.15;12.60;;;;;;;;;;5057079;28;20063;-70
2022/08/29 04:34:09;;;;;;;15.25;12.18;;;;;;;;;;5073046;28;20045;-67
2022/08/29 04:36:37;;;;;;;14.75;11.65;;;;;;;;;;5077498;28;20108;-68
2022/08/29 04:39:04;;;;;;;14.13;12.00;;;;;;;;;;5077018;28;20045;-67
2022/08/29 04:41:31;;;;;;;18.77;13.35;;;;;;;;;;5076657;28;20152;-67
2022/08/29 04:43:58;;;;;;;19.10;14.48;;;;;;;;;;5062373;28;20048;-67
2022/08/29 04:46:25;;;;;;;20.25;15.40;;;;;;;;;;5057390;28;20057;-67
2022/08/29 04:48:52;;;;;;;22.10;17.08;;;;;;;;;;5056856;28;20037;-68
2022/08/29 04:51:20;;;;;;;20.75;16.17;;;;;;;;;;5050569;28;20042;-69
2022/08/29 04:53:47;;;;;;;23.63;17.05;;;;;;;;;;5046519;28;20049;-69
2022/08/29 04:56:13;;;;;;;18.88;14.80;;;;;;;;;;5035803;28;20518;-69
2022/08/29 04:58:42;;;;;;;16.38;14.57;;;;;;;;;;5053272;28;20110;-69
2022/08/29 05:01:15;;;;;;;18.02;14.25;;;;;;;;;;5043263;28;20144;-68
2022/08/29 05:03:42;;;;;;;15.63;12.95;;;;;;;;;;5031648;28;20053;-68
2022/08/29 05:06:10;;;;;;;14.80;13.10;;;;;;;;;;5031576;28;20046;-69
2022/08/29 05:08:40;;;;;;;18.33;13.88;;;;;;;;;;5030930;28;20054;-68
2022/08/29 05:11:10;;;;;;;15.75;13.48;;;;;;;;;;5039429;28;20511;-69
2022/08/29 05:13:37;;;;;;;14.27;12.88;;;;;;;;;;5034047;28;20068;-69
2022/08/29 05:16:09;;;;;;;15.90;13.50;;;;;;;;;;5053167;28;20129;-68
2022/08/29 05:18:37;;;;;;;14.98;13.38;;;;;;;;;;5052881;28;20067;-68
2022/08/29 05:21:04;;;;;;;15.98;12.20;;;;;;;;;;5044100;28;20065;-67
2022/08/29 05:23:31;;;;;;;17.65;12.75;;;;;;;;;;5032766;28;20428;-68
2022/08/29 05:26:00;;;;;;;15.82;12.25;;;;;;;;;;5031440;28;20049;-68
2022/08/29 05:28:28;;;;;;;12.93;11.45;;;;;;;;;;5030682;28;20061;-67
2022/08/29 05:30:55;;;;;;;15.90;11.98;;;;;;;;;;5030420;28;20053;-67
2022/08/29 05:33:22;;;;;;;15.05;11.95;;;;;;;;;;5030391;28;20049;-67
2022/08/29 05:35:49;;;;;;;14.13;12.57;;;;;;;;;;5029940;28;20261;-67
2022/08/29 05:38:15;;;;;;;14.20;11.73;;;;;;;;;;5029819;28;20056;-67
2022/08/29 05:40:42;;;;;;;15.00;12.50;;;;;;;;;;5030963;28;20049;-67
2022/08/29 05:43:09;;;;;;;14.15;11.25;;;;;;;;;;5032241;28;20045;-67
2022/08/29 05:45:37;;;;;;;14.02;12.05;;;;;;;;;;5031918;28;20079;-66
2022/08/29 05:48:06;;;;;;;13.32;11.32;;;;;;;;;;5031725;28;20053;-67
2022/08/29 05:50:38;;;;;;;15.95;12.18;;;;;;;;;;5031943;28;20049;-67
2022/08/29 05:53:05;;;;;;;13.32;11.93;;;;;;;;;;5033321;28;20062;-68
2022/08/29 05:55:31;;;;;;;13.73;11.25;;;;;;;;;;5035711;28;20049;-67
2022/08/29 05:57:58;;;;;;;13.98;12.45;;;;;;;;;;5035701;28;20056;-68
2022/08/29 06:00:26;;;;;;;13.63;11.88;;;;;;;;;;5035412;28;20041;-67
2022/08/29 06:02:53;;;;;;;15.23;12.65;;;;;;;;;;5035540;28;20053;-67
2022/08/29 06:05:20;;;;;;;14.35;12.80;;;;;;;;;;5036204;28;20057;-67
2022/08/29 06:07:47;;;;;;;15.32;12.82;;;;;;;;;;5035576;28;20053;-67
2022/08/29 06:10:13;;;;;;;15.07;12.88;;;;;;;;;;5035259;28;20053;-67
2022/08/29 06:12:40;;;;;;;15.48;12.50;;;;;;;;;;5035517;28;20053;-67
2022/08/29 06:15:07;;;;;;;14.25;12.20;;;;;;;;;;5035170;28;20058;-67
2022/08/29 06:17:34;;;;;;;16.35;12.85;;;;;;;;;;5035342;28;20047;-67
2022/08/29 06:20:01;;;;;;;14.65;12.38;;;;;;;;;;5034817;28;20042;-67
2022/08/29 06:22:27;;;;;;;18.67;12.88;;;;;;;;;;5035195;28;20045;-67
2022/08/29 06:24:54;;;;;;;16.00;12.45;;;;;;;;;;5035722;28;20049;-67
2022/08/29 06:27:23;;;;;;;17.08;13.13;;;;;;;;;;5036748;28;20463;-67
2022/08/29 06:29:50;;;;;;;16.85;13.60;;;;;;;;;;5036285;28;20056;-68
2022/08/29 06:32:17;;;;;;;20.85;13.85;;;;;;;;;;5036995;28;20055;-67
2022/08/29 06:34:43;;;;;;;14.82;13.32;;;;;;;;;;5035596;28;20096;-67
2022/08/29 06:37:10;;;;;;;13.18;11.75;;;;;;;;;;5034832;28;20053;-67
2022/08/29 06:39:37;;;;;;;19.05;13.32;;;;;;;;;;5034456;28;20045;-67
2022/08/29 06:42:03;;;;;;;15.35;13.57;;;;;;;;;;5034687;28;20049;-67
2022/08/29 06:44:30;;;;;;;16.08;12.95;;;;;;;;;;5034733;28;20053;-68
2022/08/29 06:46:57;;;;;;;22.45;14.05;;;;;;;;;;5034924;28;20049;-67
2022/08/29 06:49:24;;;;;;;16.80;15.10;;;;;;;;;;5034449;28;20050;-67
2022/08/29 06:51:51;;;;;;;16.60;13.82;;;;;;;;;;5034655;28;20049;-67
2022/08/29 06:54:24;;;;;;;15.68;14.10;;;;;;;;;;5034554;28;20058;-67
2022/08/29 06:56:54;;;;;;;17.40;14.93;;;;;;;;;;5034468;28;20067;-67
2022/08/29 06:59:21;;;;;;;16.13;13.30;;;;;;;;;;5034448;28;20059;-67
2022/08/29 07:01:48;;;;;;;18.45;13.93;;;;;;;;;;5016687;28;20523;-67
2022/08/29 07:04:15;;;;;;;16.33;13.55;;;;;;;;;;5016154;28;20060;-67
2022/08/29 07:06:46;;;;;;;18.00;13.60;;;;;;;;;;5034019;28;20103;-67
2022/08/29 07:09:13;;;;;;;16.98;13.27;;;;;;;;;;5033933;28;20140;-67
2022/08/29 07:11:40;;;;;;;13.32;12.02;;;;;;;;;;5034280;28;20056;-67
2022/08/29 07:14:07;;;;;;;14.35;12.85;;;;;;;;;;5034153;28;20107;-67
2022/08/29 07:16:35;;;;;;;15.77;13.32;;;;;;;;;;5016497;28;20053;-67
2022/08/29 07:19:03;;;;;;;15.10;12.32;;;;;;;;;;5016321;28;20056;-67
2022/08/29 07:21:30;;;;;;;14.45;12.75;;;;;;;;;;5034026;28;20420;-68
2022/08/29 07:23:57;;;;;;;13.60;11.55;;;;;;;;;;5033788;28;20049;-67
2022/08/29 07:26:27;;;;;;;13.23;11.90;;;;;;;;;;5034312;28;20057;-67
2022/08/29 07:28:56;;;;;;;16.60;11.63;;;;;;;;;;5033437;28;20065;-67
2022/08/29 07:31:24;;;;;;;12.73;11.15;;;;;;;;;;5016379;28;20103;-67
2022/08/29 07:33:56;;;;;;;12.27;11.02;;;;;;;;;;5033602;28;20057;-67
2022/08/29 07:36:32;;;;;;;12.75;10.95;;;;;;;;;;5033827;28;20070;-67
2022/08/29 07:39:00;;;;;;;13.50;10.88;;;;;;;;;;5033114;28;20053;-67
2022/08/29 07:41:27;;;;;;;13.45;10.38;;;;;;;;;;5033434;28;20060;-67
2022/08/29 07:43:54;;;;;;;13.00;10.35;;;;;;;;;;5033788;28;20389;-67
2022/08/29 07:46:21;;;;;;;11.32;10.15;;;;;;;;;;5033539;28;20060;-67
2022/08/29 07:48:48;;;;;;;10.80;9.77;;;;;;;;;;5033056;28;20419;-67
2022/08/29 07:51:16;;;;;;;12.00;9.40;;;;;;;;;;5033223;28;20064;-67
2022/08/29 07:53:43;;;;;;;11.60;8.82;;;;;;;;;;5033423;28;20443;-67
2022/08/29 07:56:13;;;;;;;21.75;9.82;;;;;;;;;;5033400;28;20045;-67
2022/08/29 07:58:40;;;;;;;11.57;10.38;;;;;;;;;;5015991;28;20069;-67
2022/08/29 08:01:08;;;;;;;10.85;9.73;;;;;;;;;;5033099;28;20060;-67
2022/08/29 08:03:46;;;;;;;14.02;10.18;;;;;;;;;;5033158;28;20054;-67
2022/08/29 08:06:12;;;;;;;13.43;9.85;;;;;;;;;;5033243;28;20095;-67
2022/08/29 08:08:39;;;;;;;12.13;9.73;;;;;;;;;;5032817;28;20064;-67
2022/08/29 08:11:06;;;;;;;9.50;8.35;;;;;;;;;;5032873;28;20054;-67
2022/08/29 08:13:34;;;;;;;12.27;9.30;;;;;;;;;;5015653;28;20061;-67
2022/08/29 08:16:10;;;;;;;12.95;9.32;;;;;;;;;;5032826;28;20405;-66
2022/08/29 08:18:37;;;;;;;12.40;9.40;;;;;;;;;;5015385;28;20056;-67
2022/08/29 08:21:04;;;;;;;12.10;8.65;;;;;;;;;;5033254;28;20413;-67
2022/08/29 08:23:31;;;;;;;10.90;9.18;;;;;;;;;;5033045;28;20389;-67
2022/08/29 08:25:58;;;;;;;11.10;9.45;;;;;;;;;;5033406;28;20104;-67
2022/08/29 08:28:26;;;;;;;12.38;10.05;;;;;;;;;;5032642;28;20057;-67
2022/08/29 08:30:53;;;;;;;12.05;8.23;;;;;;;;;;5032543;28;20049;-67
2022/08/29 08:33:20;;;;;;;11.05;8.50;;;;;;;;;;5032931;28;20115;-67
2022/08/29 08:35:47;;;;;;;9.65;8.35;;;;;;;;;;5032797;28;20065;-67
2022/08/29 08:38:15;;;;;;;10.15;8.55;;;;;;;;;;5032515;28;20046;-67
2022/08/29 08:40:55;;;;;;;11.25;8.88;;;;;;;;;;5032349;28;20068;-67
2022/08/29 08:43:26;;;;;;;10.02;8.73;;;;;;;;;;5015339;28;20064;-67
2022/08/29 08:45:55;;;;;;;10.32;9.02;;;;;;;;;;4999480;28;20151;-67
2022/08/29 08:48:23;;;;;;;9.27;8.38;;;;;;;;;;4998867;28;20045;-67
2022/08/29 08:50:53;;;;;;;12.93;8.82;;;;;;;;;;5014975;28;20053;-68
2022/08/29 08:53:21;;;;;;;9.50;8.25;;;;;;;;;;5038630;28;20057;-68
2022/08/29 08:55:50;;;;;;;12.75;7.75;;;;;;;;;;5018693;28;20056;-68
2022/08/29 08:58:22;;;;;;;11.65;8.20;;;;;;;;;;5039250;28;20059;-68
2022/08/29 09:01:19;;;;;;;8.98;6.82;;;;;;;;;;5024473;28;20069;-67
2022/08/29 09:04:01;;;;;;;10.43;8.07;;;;;;;;;;5025960;28;20075;-68
2022/08/29 09:06:47;;;;;;;8.05;7.20;;;;;;;;;;5045504;28;20488;-68
2022/08/29 09:09:41;;;;;;;8.73;6.93;;;;;;;;;;5040041;28;20045;-67
2022/08/29 09:12:20;;;;;;;10.15;7.00;;;;;;;;;;5032464;28;20053;-67
2022/08/29 09:14:53;;;;;;;10.93;7.13;;;;;;;;;;5015552;28;20058;-67
2022/08/29 09:17:26;;;;;;;6.93;6.22;;;;;;;;;;5015349;28;20497;-68
2022/08/29 09:19:53;;;;;;;8.00;7.13;;;;;;;;;;5014705;28;20056;-68
2022/08/29 09:22:29;;;;;;;9.07;7.45;;;;;;;;;;5031925;28;20148;-68
2022/08/29 09:25:04;;;;;;;9.50;6.55;;;;;;;;;;5014909;28;20049;-68
2022/08/29 09:27:33;;;;;;;13.05;6.38;;;;;;;;;;5015720;28;20050;-67
2022/08/29 09:30:06;;;;;;;10.60;7.55;;;;;;;;;;5035670;28;20489;-68
2022/08/29 09:32:40;;;;;;;11.45;6.95;;;;;;;;;;5035865;28;20057;-67
2022/08/29 09:35:25;;;;;;;8.50;6.38;;;;;;;;;;5018243;28;20136;-68
2022/08/29 09:38:01;;;;;;;9.88;7.25;;;;;;;;;;5035842;28;20049;-67
2022/08/29 09:40:49;;;;;;;8.30;6.30;;;;;;;;;;5035546;28;20050;-68
2022/08/29 09:43:20;;;;;;;7.55;6.35;;;;;;;;;;5035586;28;20132;-69
2022/08/29 09:46:04;;;;;;;9.48;6.25;;;;;;;;;;5035489;28;20057;-68
2022/08/29 09:48:31;;;;;;;8.55;7.03;;;;;;;;;;5035034;28;20528;-68
2022/08/29 09:51:09;;;;;;;7.53;5.72;;;;;;;;;;5018451;28;20415;-68
2022/08/29 09:53:36;;;;;;;7.15;6.07;;;;;;;;;;5017909;28;20424;-68
2022/08/29 09:56:08;;;;;;;8.52;6.25;;;;;;;;;;5035626;28;20049;-67
2022/08/29 09:58:38;;;;;;;7.10;5.95;;;;;;;;;;5017741;28;20056;-67
2022/08/29 10:01:17;;;;;;;6.80;6.10;;;;;;;;;;5035140;28;20467;-69
2022/08/29 10:03:54;;;;;;;8.82;5.50;;;;;;;;;;5035328;28;20153;-68
2022/08/29 10:06:24;;;;;;;9.77;5.13;;;;;;;;;;5035142;28;20057;-68
2022/08/29 10:08:56;;;;;;;7.72;4.78;;;;;;;;;;5034731;28;20060;-68
2022/08/29 10:11:36;;;;;;;7.93;4.75;;;;;;;;;;5034832;28;20734;-68
2022/08/29 10:14:29;;;;;;;8.20;4.88;;;;;;;;;;5017567;28;20363;-68
2022/08/29 10:18:19;;;;;;;5.05;4.55;;;;;;;;;;5034807;28;20054;-68
2022/08/29 10:19:47;;;;;;;5.32;3.85;;;;;;;;;;5019783;28;20050;-68
2022/08/29 10:22:48;;;;;;;5.38;4.20;;;;;;;;;;5017432;28;20056;-68
2022/08/29 10:25:35;;;;;;;6.40;4.43;;;;;;;;;;5003610;28;20056;-68
2022/08/29 10:28:14;;;;;;;6.75;4.20;;;;;;;;;;5017353;28;20041;-68
2022/08/29 10:30:53;;;;;;;6.78;4.13;;;;;;;;;;5018494;28;20045;-68
2022/08/29 10:33:26;;;;;;;6.45;3.97;;;;;;;;;;5017043;28;20057;-67
2022/08/29 10:35:59;;;;;;;10.48;5.65;;;;;;;;;;5016992;28;20053;-68
2022/08/29 10:38:44;;;;;;;;;;;;;;;;;;5034586;28;20053;-68
2022/08/29 10:41:31;;;;;;;7.93;4.20;;;;;;;;;;5049249;28;19928;-67
2022/08/29 10:44:19;;;;;;;8.85;4.72;;;;;;;;;;5034333;28;20049;-68
2022/08/29 10:46:55;;;;;;;8.48;4.45;;;;;;;;;;5017514;28;20045;-69
2022/08/29 10:49:52;;;;;;;3.97;3.45;;;;;;;;;;5016708;28;20056;-68
2022/08/29 10:52:28;;;;;;;6.75;4.25;;;;;;;;;;5034379;28;20049;-68
2022/08/29 10:55:06;;;;;;;4.53;3.40;;;;;;;;;;5034334;28;20496;-67
2022/08/29 10:57:39;;;;;;;7.13;3.90;;;;;;;;;;5034844;28;20496;-68
2022/08/29 11:00:09;;;;;;;8.57;4.18;;;;;;;;;;5038712;28;20041;-69
2022/08/29 11:02:49;;;;;;;7.38;3.72;;;;;;;;;;5031110;28;20044;-68
2022/08/29 11:05:22;;;;;;;4.75;3.63;;;;;;;;;;5001336;28;20051;-68
2022/08/29 11:07:53;;;;;;;6.45;4.00;;;;;;;;;;5000257;28;20051;-68
2022/08/29 11:10:23;;;;;;;5.45;3.78;;;;;;;;;;5000634;28;20056;-69
2022/08/29 11:13:08;;;;;;;4.28;3.75;;;;;;;;;;5000540;28;20045;-68
2022/08/29 11:15:45;;;;;;;6.45;3.65;;;;;;;;;;5016679;28;20049;-68
2022/08/29 11:18:28;;;;;;;5.30;4.03;;;;;;;;;;5001191;28;20060;-68
2022/08/29 11:21:06;;;;;;;6.18;3.80;;;;;;;;;;5016257;28;20056;-68
2022/08/29 11:23:42;;;;;;;7.05;3.78;;;;;;;;;;5017018;28;20085;-67
2022/08/29 11:26:44;;;;;;;6.88;3.70;;;;;;;;;;5033817;28;20053;-68
2022/08/29 11:29:16;;;;;;;5.32;3.33;;;;;;;;;;5002981;28;20049;-68
2022/08/29 11:32:21;;;;;;;4.47;3.08;;;;;;;;;;5035217;28;20052;-69
2022/08/29 11:34:59;;;;;;;3.78;2.90;;;;;;;;;;5016970;28;20055;-68
2022/08/29 11:38:03;;;;;;;6.40;3.17;;;;;;;;;;5033708;28;20049;-68
2022/08/29 11:40:42;;;;;;;4.55;3.17;;;;;;;;;;5033163;28;20412;-67
2022/08/29 11:43:33;;;;;;;5.80;3.50;;;;;;;;;;5033485;28;20049;-68
2022/08/29 11:46:02;;;;;;;8.52;3.38;;;;;;;;;;5016432;28;20045;-68
2022/08/29 11:48:44;;;;;;;8.05;5.18;;;;;;;;;;5015586;28;20049;-67
2022/08/29 11:51:32;;;;;;;6.60;4.00;;;;;;;;;;5032871;28;20500;-68
2022/08/29 11:54:23;;;;;;;8.80;3.45;;;;;;;;;;5033367;28;20476;-69
2022/08/29 11:56:59;;;;;;;10.35;3.15;;;;;;;;;;5032994;28;20436;-68
2022/08/29 11:59:44;;;;;;;8.27;4.97;;;;;;;;;;5033089;28;20057;-67
2022/08/29 12:02:31;;;;;;;5.47;3.50;;;;;;;;;;5033045;28;20043;-69
2022/08/29 12:05:04;;;;;;;5.05;3.53;;;;;;;;;;5019551;28;20053;-68
2022/08/29 12:07:32;;;;;;;8.57;3.75;;;;;;;;;;5033063;28;20072;-69
2022/08/29 12:10:02;;;;;;;5.97;3.88;;;;;;;;;;5015163;28;20519;-68
2022/08/29 12:12:43;;;;;;;5.93;3.95;;;;;;;;;;5015999;28;20055;-67
2022/08/29 12:15:28;;;;;;;6.38;3.13;;;;;;;;;;5015468;28;20072;-68
2022/08/29 12:17:56;;;;;;;5.30;3.83;;;;;;;;;;5032673;28;20049;-68
2022/08/29 12:20:28;;;;;;;7.40;4.00;;;;;;;;;;5016322;28;20053;-68
2022/08/29 12:23:05;;;;;;;4.75;3.83;;;;;;;;;;5033088;28;20056;-68
2022/08/29 12:25:42;;;;;;;6.15;4.32;;;;;;;;;;5032792;28;20416;-68
2022/08/29 12:28:14;;;;;;;7.63;5.03;;;;;;;;;;5032402;28;20049;-67
2022/08/29 12:30:57;;;;;;;5.45;3.30;;;;;;;;;;5032747;28;20504;-68
2022/08/29 12:33:48;;;;;;;7.20;3.58;;;;;;;;;;5032630;28;20305;-69
2022/08/29 12:36:42;;;;;;;6.20;2.97;;;;;;;;;;5015155;28;20132;-67
2022/08/29 12:39:59;;;;;;;5.35;3.65;;;;;;;;;;5032578;28;20049;-69
2022/08/29 12:42:45;;;;;;;6.50;3.55;;;;;;;;;;5032545;28;20073;-70
2022/08/29 12:45:18;;;;;;;4.28;2.95;;;;;;;;;;5015320;28;20053;-68
2022/08/29 12:47:48;;;;;;;4.20;3.22;;;;;;;;;;5015077;28;20236;-69
2022/08/29 12:50:21;;;;;;;5.00;3.17;;;;;;;;;;4998968;28;20053;-69
2022/08/29 12:53:05;;;;;;;5.25;3.38;;;;;;;;;;5014819;28;20053;-69
2022/08/29 12:55:43;;;;;;;5.10;3.00;;;;;;;;;;5032700;28;20132;-68
2022/08/29 12:58:11;;;;;;;7.13;5.25;;;;;;;;;;5032110;28;20050;-69
2022/08/29 13:00:40;;;;;;;3.20;2.90;;;;;;;;;;4999105;28;20073;-69
2022/08/29 13:03:25;;;;;;;3.20;2.90;;;;;;;;;;5031524;28;20046;-69
2022/08/29 13:06:04;;;;;;;3.90;3.05;;;;;;;;;;5032129;28;20072;-69
2022/08/29 13:08:35;;;;;;;4.22;3.30;;;;;;;;;;5015349;28;20415;-68
2022/08/29 13:11:08;;;;;;;5.10;3.05;;;;;;;;;;5031863;28;20067;-68
2022/08/29 13:13:35;;;;;;;3.58;2.83;;;;;;;;;;5031875;28;20053;-69
2022/08/29 13:16:05;;;;;;;5.70;2.88;;;;;;;;;;5014497;28;20083;-68
2022/08/29 13:18:33;;;;;;;3.90;2.97;;;;;;;;;;5014215;28;20099;-69
2022/08/29 13:21:31;;;;;;;4.97;4.10;;;;;;;;;;5017225;28;20061;-69
2022/08/29 13:23:59;;;;;;;4.72;3.22;;;;;;;;;;5014592;28;20045;-68
2022/08/29 13:26:27;;;;;;;5.75;3.20;;;;;;;;;;5014379;28;20132;-68
2022/08/29 13:29:28;;;;;;;8.00;3.25;;;;;;;;;;5046526;28;20509;-68
2022/08/29 13:32:10;;;;;;;4.65;3.40;;;;;;;;;;5032000;28;20132;-68
2022/08/29 13:34:37;;;;;;;4.80;3.42;;;;;;;;;;5014248;28;20520;-69
2022/08/29 13:37:06;;;;;;;5.68;3.40;;;;;;;;;;5014209;28;20104;-68
2022/08/29 13:39:46;;;;;;;3.40;3.00;;;;;;;;;;5001965;28;20060;-68
2022/08/29 13:42:21;;;;;;;3.55;3.22;;;;;;;;;;5014452;28;20046;-68
2022/08/29 13:44:48;;;;;;;5.93;3.22;;;;;;;;;;5031912;28;20504;-68
2022/08/29 13:47:19;;;;;;;4.80;3.25;;;;;;;;;;5031641;28;20057;-68
2022/08/29 13:49:46;;;;;;;3.65;3.22;;;;;;;;;;5014571;28;20053;-69
2022/08/29 13:52:13;;;;;;;6.45;3.03;;;;;;;;;;5032013;28;20416;-68
2022/08/29 13:54:41;;;;;;;4.70;3.63;;;;;;;;;;5031599;28;20520;-69
2022/08/29 13:57:12;;;;;;;3.30;2.95;;;;;;;;;;5031694;28;20056;-68
2022/08/29 13:59:39;;;;;;;4.70;3.30;;;;;;;;;;5031214;28;20562;-68
2022/08/29 14:02:06;;;;;;;4.05;2.92;;;;;;;;;;5031274;28;20056;-68
2022/08/29 14:04:35;;;;;;;3.42;2.80;;;;;;;;;;5031497;28;20054;-69
2022/08/29 14:07:10;;;;;;;3.85;3.17;;;;;;;;;;5031737;28;20049;-68
2022/08/29 14:09:39;;;;;;;3.47;3.17;;;;;;;;;;5014475;28;20053;-67
2022/08/29 14:12:06;;;;;;;4.13;2.83;;;;;;;;;;4997952;28;20042;-68
2022/08/29 14:14:33;;;;;;;4.30;2.92;;;;;;;;;;5034045;28;20060;-68
2022/08/29 14:16:59;;;;;;;3.65;3.13;;;;;;;;;;5035693;28;20057;-68
2022/08/29 14:19:27;;;;;;;3.38;3.05;;;;;;;;;;5035327;28;20049;-69
2022/08/29 14:21:54;;;;;;;4.72;2.92;;;;;;;;;;5034839;28;20045;-69
2022/08/29 14:24:21;;;;;;;5.22;2.63;;;;;;;;;;5035551;28;20054;-67
2022/08/29 14:26:54;;;;;;;3.13;2.90;;;;;;;;;;5018334;28;20056;-68
2022/08/29 14:29:28;;;;;;;3.58;2.70;;;;;;;;;;5034842;28;20140;-67
2022/08/29 14:31:57;;;;;;;3.50;2.65;;;;;;;;;;5035220;28;20059;-68
2022/08/29 14:34:24;;;;;;;3.58;2.67;;;;;;;;;;5034970;28;20060;-68
2022/08/29 14:36:56;;;;;;;2.92;2.58;;;;;;;;;;5018019;28;20057;-68
2022/08/29 14:39:22;;;;;;;3.63;2.80;;;;;;;;;;5034425;28;20056;-68
2022/08/29 14:41:52;;;;;;;3.00;2.70;;;;;;;;;;5034734;28;20045;-68
2022/08/29 14:44:20;;;;;;;4.32;2.90;;;;;;;;;;5034776;28;20061;-69
2022/08/29 14:46:47;;;;;;;3.08;2.78;;;;;;;;;;5034467;28;20072;-69
2022/08/29 14:49:14;;;;;;;4.65;3.13;;;;;;;;;;5034477;28;20492;-69
2022/08/29 14:51:43;;;;;;;5.63;3.20;;;;;;;;;;5034639;28;20568;-68
2022/08/29 14:54:10;;;;;;;5.25;3.03;;;;;;;;;;5034431;28;20049;-69
2022/08/29 14:56:37;;;;;;;3.22;2.90;;;;;;;;;;5034623;28;20046;-69